createdAt,value
2018-01-15T00:01:38.820Z,19.50
2018-01-15T00:04:44.453Z,23.27
2018-01-15T00:07:49.409Z,16.33
2018-01-15T00:10:54.673Z,13.90
2018-01-15T00:13:59.625Z,13.83
2018-01-15T00:17:05.198Z,13.97
2018-01-15T00:20:11.535Z,13.87
2018-01-15T00:23:17.766Z,14.53
2018-01-15T00:26:22.880Z,14.57
2018-01-15T00:29:28.193Z,14.10
2018-01-15T00:32:33.757Z,13.70
2018-01-15T00:35:38.778Z,14.67
2018-01-15T00:38:44.539Z,14.57
2018-01-15T00:41:50.126Z,15.47
2018-01-15T00:44:55.185Z,15.27
2018-01-15T00:48:00.377Z,14.87
2018-01-15T00:51:05.621Z,15.07
2018-01-15T00:54:11.209Z,14.37
2018-01-15T00:57:17.229Z,14.77
2018-01-15T01:00:22.741Z,14.47
2018-01-15T01:03:27.614Z,15.60
2018-01-15T01:06:33.165Z,13.33
2018-01-15T01:09:38.341Z,12.73
2018-01-15T01:12:43.649Z,15.20
2018-01-15T01:15:49.832Z,14.00
2018-01-15T01:18:55.029Z,13.87
2018-01-15T01:22:00.492Z,14.23
2018-01-15T01:25:06.117Z,15.70
2018-01-15T01:28:10.974Z,18.40
2018-01-15T01:31:16.241Z,14.77
2018-01-15T01:34:21.913Z,14.83
2018-01-15T01:37:27.757Z,14.90
2018-01-15T01:40:32.722Z,13.83
2018-01-15T01:43:37.774Z,13.67
2018-01-15T01:46:42.915Z,15.30
2018-01-15T01:49:48.465Z,13.63
2018-01-15T01:52:53.633Z,13.40
2018-01-15T01:55:58.935Z,14.40
2018-01-15T01:59:03.937Z,14.83
2018-01-15T02:02:08.814Z,13.40
2018-01-15T02:05:14.254Z,14.83
2018-01-15T02:08:19.773Z,14.07
2018-01-15T02:11:25.815Z,13.67
2018-01-15T02:14:31.253Z,17.00
2018-01-15T02:17:36.609Z,15.77
2018-01-15T02:20:42.129Z,14.13
2018-01-15T02:23:47.737Z,14.03
2018-01-15T02:26:53.590Z,14.50
2018-01-15T02:29:58.744Z,15.07
2018-01-15T02:33:04.710Z,14.43
2018-01-15T02:36:09.714Z,15.80
2018-01-15T02:39:15.153Z,13.70
2018-01-15T02:42:20.485Z,14.57
2018-01-15T02:45:26.193Z,14.77
2018-01-15T02:48:32.261Z,15.90
2018-01-15T02:51:38.493Z,14.13
2018-01-15T02:54:43.838Z,14.27
2018-01-15T02:57:48.779Z,13.97
2018-01-15T03:00:54.215Z,14.10
2018-01-15T03:03:59.297Z,15.07
2018-01-15T03:07:05.089Z,15.73
2018-01-15T03:10:10.535Z,14.87
2018-01-15T03:13:16.296Z,16.83
2018-01-15T03:16:22.377Z,16.80
2018-01-15T03:19:27.677Z,15.50
2018-01-15T03:22:33.433Z,16.53
2018-01-15T03:25:38.841Z,16.83
2018-01-15T03:28:45.236Z,16.57
2018-01-15T03:31:50.693Z,16.03
2018-01-15T03:34:56.166Z,16.27
2018-01-15T03:38:01.834Z,15.90
2018-01-15T03:41:06.769Z,17.20
2018-01-15T03:44:12.006Z,17.20
2018-01-15T03:47:17.201Z,16.43
2018-01-15T03:50:22.628Z,18.63
2018-01-15T03:53:28.478Z,20.30
2018-01-15T03:56:33.689Z,20.57
2018-01-15T03:59:39.210Z,17.53
2018-01-15T04:02:44.814Z,18.23
2018-01-15T04:05:50.917Z,18.03
2018-01-15T04:08:56.485Z,18.30
2018-01-15T04:12:01.406Z,18.47
2018-01-15T04:15:06.777Z,17.40
2018-01-15T04:18:12.562Z,19.17
2018-01-15T04:21:18.265Z,17.70
2018-01-15T04:24:24.157Z,18.17
2018-01-15T04:27:29.558Z,16.97
2018-01-15T04:30:34.685Z,17.67
2018-01-15T04:33:40.777Z,16.63
2018-01-15T04:36:46.144Z,16.57
2018-01-15T04:39:50.913Z,17.93
2018-01-15T04:42:56.740Z,17.77
2018-01-15T04:46:02.035Z,16.97
2018-01-15T04:49:07.089Z,16.43
2018-01-15T04:52:14.065Z,15.77
2018-01-15T04:55:19.877Z,16.80
2018-01-15T04:58:25.609Z,16.70
2018-01-15T05:01:30.598Z,13.97
2018-01-15T05:04:36.050Z,14.93
2018-01-15T05:07:40.825Z,16.93
2018-01-15T05:10:45.711Z,16.17
2018-01-15T05:13:51.081Z,15.97
2018-01-15T05:16:56.637Z,15.53
2018-01-15T05:20:02.382Z,16.70
2018-01-15T05:23:08.928Z,15.53
2018-01-15T05:26:15.195Z,17.33
2018-01-15T05:29:20.710Z,14.50
2018-01-15T05:32:26.237Z,14.83
2018-01-15T05:35:32.821Z,16.30
2018-01-15T05:38:39.372Z,16.70
2018-01-15T05:41:45.673Z,16.77
2018-01-15T05:44:51.346Z,15.87
2018-01-15T05:47:56.258Z,14.10
2018-01-15T05:51:01.761Z,17.10
2018-01-15T05:54:07.121Z,18.10
2018-01-15T05:57:12.265Z,18.10
2018-01-15T06:00:17.317Z,18.23
2018-01-15T06:03:22.693Z,19.30
2018-01-15T06:06:27.718Z,18.67
2018-01-15T06:09:33.973Z,19.27
2018-01-15T06:12:39.649Z,17.87
2018-01-15T06:15:45.141Z,19.70
2018-01-15T06:18:50.698Z,19.77
2018-01-15T06:21:55.694Z,21.73
2018-01-15T06:25:00.829Z,29.53
2018-01-15T06:28:06.490Z,34.50
2018-01-15T06:31:12.885Z,22.10
2018-01-15T06:34:18.585Z,20.30
2018-01-15T06:37:23.826Z,19.07
2018-01-15T06:40:29.249Z,19.13
2018-01-15T06:43:34.886Z,19.87
2018-01-15T06:46:40.152Z,20.70
2018-01-15T06:49:45.766Z,20.97
2018-01-15T06:52:51.629Z,19.73
2018-01-15T06:55:56.917Z,21.00
2018-01-15T06:59:03.273Z,21.10
2018-01-15T07:02:08.917Z,20.40
2018-01-15T07:05:14.076Z,21.17
2018-01-15T07:08:19.873Z,21.10
2018-01-15T07:11:25.370Z,22.60
2018-01-15T07:14:30.657Z,21.13
2018-01-15T07:17:36.582Z,23.10
2018-01-15T07:20:43.254Z,21.83
2018-01-15T07:23:49.650Z,21.43
2018-01-15T07:26:54.664Z,22.43
2018-01-15T07:29:59.690Z,21.47
2018-01-15T07:33:04.729Z,21.83
2018-01-15T07:36:10.990Z,22.67
2018-01-15T07:39:15.940Z,21.47
2018-01-15T07:42:21.059Z,21.30
2018-01-15T07:45:26.040Z,21.70
2018-01-15T07:48:31.805Z,22.90
2018-01-15T07:51:38.173Z,21.17
2018-01-15T07:54:43.458Z,22.53
2018-01-15T07:57:49.117Z,22.70
2018-01-15T08:00:54.029Z,23.80
2018-01-15T08:03:59.049Z,23.63
2018-01-15T08:07:03.937Z,22.20
2018-01-15T08:10:10.358Z,22.03
2018-01-15T08:13:15.917Z,21.37
2018-01-15T08:16:20.866Z,25.37
2018-01-15T08:19:26.125Z,25.23
2018-01-15T08:22:31.081Z,28.60
2018-01-15T08:25:36.037Z,23.23
2018-01-15T08:28:41.497Z,23.13
2018-01-15T08:31:46.449Z,24.80
2018-01-15T08:34:53.170Z,25.20
2018-01-15T08:37:57.852Z,21.30
2018-01-15T08:41:03.950Z,22.10
2018-01-15T08:44:08.637Z,20.70
2018-01-15T08:47:14.399Z,22.13
2018-01-15T08:50:20.241Z,23.00
2018-01-15T08:53:24.938Z,21.97
2018-01-15T08:56:30.662Z,21.90
2018-01-15T08:59:35.938Z,23.40
2018-01-15T09:02:40.881Z,22.63
2018-01-15T09:05:46.141Z,22.47
2018-01-15T09:08:52.413Z,21.57
2018-01-15T09:11:58.917Z,22.77
2018-01-15T09:15:05.003Z,21.80
2018-01-15T09:18:10.441Z,23.37
2018-01-15T09:21:15.413Z,22.30
2018-01-15T09:24:20.970Z,23.00
2018-01-15T09:27:26.230Z,23.20
2018-01-15T09:30:31.287Z,21.40
2018-01-15T09:33:36.377Z,21.80
2018-01-15T09:36:41.365Z,21.70
2018-01-15T09:39:46.942Z,21.47
2018-01-15T09:42:51.797Z,23.40
2018-01-15T09:45:58.073Z,23.03
2018-01-15T09:49:03.273Z,23.97
2018-01-15T09:52:08.402Z,23.53
2018-01-15T09:55:13.297Z,22.87
2018-01-15T09:58:19.075Z,21.37
2018-01-15T10:01:24.154Z,21.27
2018-01-15T10:04:29.550Z,22.70
2018-01-15T10:07:34.461Z,22.17
2018-01-15T10:10:40.074Z,22.97
2018-01-15T10:13:44.769Z,22.40
2018-01-15T10:16:59.021Z,22.17
2018-01-15T10:20:04.367Z,23.50
2018-01-15T10:23:10.141Z,22.57
2018-01-15T10:26:15.361Z,22.87
2018-01-15T10:29:20.514Z,23.40
2018-01-15T10:32:25.854Z,22.70
2018-01-15T10:35:31.566Z,22.17
2018-01-15T10:38:36.649Z,23.17
2018-01-15T10:41:41.921Z,28.20
2018-01-15T10:44:47.101Z,26.10
2018-01-15T10:47:52.852Z,22.40
2018-01-15T10:50:58.425Z,23.20
2018-01-15T10:54:04.873Z,20.80
2018-01-15T10:57:10.603Z,21.17
2018-01-15T11:00:15.962Z,21.87
2018-01-15T11:03:22.337Z,22.43
2018-01-15T11:06:27.702Z,22.03
2018-01-15T11:09:32.745Z,23.67
2018-01-15T11:12:37.578Z,21.67
2018-01-15T11:15:43.441Z,22.53
2018-01-15T11:18:49.150Z,20.47
2018-01-15T11:21:54.842Z,20.97
2018-01-15T11:24:59.860Z,20.40
2018-01-15T11:28:06.150Z,19.03
2018-01-15T11:31:12.337Z,19.97
2018-01-15T11:34:18.244Z,19.00
2018-01-15T11:37:23.783Z,21.13
2018-01-15T11:40:30.933Z,19.30
2018-01-15T11:43:39.472Z,19.80
2018-01-15T11:46:52.508Z,20.53
2018-01-15T11:49:58.364Z,20.87
2018-01-15T11:53:08.173Z,20.70
2018-01-15T11:56:13.549Z,18.90
2018-01-15T11:59:20.322Z,21.30
2018-01-15T12:02:25.706Z,20.30
2018-01-15T12:05:30.973Z,19.77
2018-01-15T12:08:37.129Z,20.57
2018-01-15T12:11:42.689Z,22.40
2018-01-15T12:14:48.177Z,19.57
2018-01-15T12:17:53.723Z,20.43
2018-01-15T12:20:59.253Z,20.67
2018-01-15T12:24:03.978Z,19.97
2018-01-15T12:27:09.046Z,18.80
2018-01-15T12:30:14.049Z,20.53
2018-01-15T12:33:19.099Z,20.93
2018-01-15T12:36:24.129Z,18.43
2018-01-15T12:39:29.630Z,17.60
2018-01-15T12:42:34.837Z,19.37
2018-01-15T12:45:40.347Z,19.73
2018-01-15T12:48:45.836Z,18.23
2018-01-15T12:51:51.457Z,18.00
2018-01-15T12:54:56.474Z,17.80
2018-01-15T12:58:01.621Z,18.70
2018-01-15T13:01:08.378Z,18.17
2018-01-15T13:04:13.453Z,19.50
2018-01-15T13:07:18.522Z,18.37
2018-01-15T13:10:24.509Z,18.20
2018-01-15T13:13:30.205Z,18.40
2018-01-15T13:16:36.086Z,17.77
2018-01-15T13:19:41.457Z,17.10
2018-01-15T13:25:28.700Z,19.90
2018-01-15T13:28:33.814Z,18.77
2018-01-15T13:31:38.612Z,16.57
2018-01-15T13:34:47.503Z,17.60
2018-01-15T13:37:52.694Z,17.30
2018-01-15T13:40:57.703Z,16.33
2018-01-15T13:44:03.139Z,16.83
2018-01-15T13:47:08.519Z,17.20
2018-01-15T13:50:13.637Z,17.73
2018-01-15T13:53:19.366Z,16.60
2018-01-15T13:56:24.478Z,16.63
2018-01-15T13:59:30.643Z,15.83
2018-01-15T14:02:36.079Z,18.90
2018-01-15T14:05:42.199Z,17.57
2018-01-15T14:08:47.966Z,17.53
2018-01-15T14:11:53.143Z,15.67
2018-01-15T14:14:58.374Z,16.07
2018-01-15T14:18:04.020Z,16.10
2018-01-15T14:21:09.547Z,15.20
2018-01-15T14:24:15.286Z,16.30
2018-01-15T14:27:21.439Z,16.00
2018-01-15T14:30:27.209Z,15.60
2018-01-15T14:33:33.852Z,15.20
2018-01-15T14:36:39.659Z,14.13
2018-01-15T14:39:45.384Z,15.20
2018-01-15T14:42:50.370Z,15.27
2018-01-15T14:45:57.032Z,15.97
2018-01-15T14:49:02.746Z,18.60
2018-01-15T14:52:07.923Z,21.20
2018-01-15T14:55:13.000Z,19.40
2018-01-15T14:58:18.111Z,18.23
2018-01-15T15:01:23.187Z,18.80
2018-01-15T15:04:28.474Z,18.97
2018-01-15T15:07:34.174Z,16.30
2018-01-15T15:10:42.071Z,15.17
2018-01-15T15:13:46.829Z,15.00
2018-01-15T15:16:52.512Z,17.10
2018-01-15T15:19:58.355Z,15.27
2018-01-15T15:23:04.022Z,16.13
2018-01-15T15:26:09.613Z,15.30
2018-01-15T15:29:19.359Z,16.23
2018-01-15T15:32:24.372Z,14.60
2018-01-15T15:35:31.366Z,17.00
2018-01-15T15:38:36.250Z,16.70
2018-01-15T15:41:41.758Z,17.40
2018-01-15T15:48:02.254Z,16.77
2018-01-15T15:51:08.159Z,16.03
2018-01-15T15:54:19.474Z,15.90
2018-01-15T15:57:24.926Z,15.87
2018-01-15T16:00:29.518Z,14.83
2018-01-15T16:03:34.804Z,26.87
2018-01-15T16:06:40.090Z,68.87
2018-01-15T16:09:46.485Z,29.80
2018-01-15T16:12:51.874Z,59.13
2018-01-15T16:15:57.334Z,41.23
2018-01-15T16:19:02.345Z,27.80
2018-01-15T16:22:20.410Z,22.50
2018-01-15T16:25:26.724Z,24.10
2018-01-15T16:28:31.565Z,36.80
2018-01-15T16:31:37.469Z,18.63
2018-01-15T16:34:42.415Z,20.77
2018-01-15T16:37:47.948Z,19.67
2018-01-15T16:40:53.399Z,18.50
2018-01-15T16:43:59.894Z,18.50
2018-01-15T16:47:05.088Z,18.60
2018-01-15T16:53:47.809Z,18.07
2018-01-15T16:56:53.113Z,16.70
2018-01-15T16:59:58.025Z,17.90
2018-01-15T17:03:03.161Z,17.33
2018-01-15T17:06:07.866Z,17.97
2018-01-15T17:09:13.293Z,17.33
2018-01-15T17:12:18.173Z,16.73
2018-01-15T17:15:23.805Z,13.67
2018-01-15T17:18:30.629Z,15.67
2018-01-15T17:21:35.996Z,13.30
2018-01-15T17:24:42.392Z,13.40
2018-01-15T17:27:48.766Z,14.00
2018-01-15T17:30:54.434Z,14.20
2018-01-15T17:33:59.494Z,16.00
2018-01-15T17:37:05.889Z,16.43
2018-01-15T17:40:10.757Z,17.70
2018-01-15T17:43:16.357Z,17.13
2018-01-15T17:46:22.807Z,14.53
2018-01-15T17:49:28.057Z,14.67
2018-01-15T17:52:34.421Z,10.80
2018-01-15T17:55:39.893Z,10.73
2018-01-15T17:58:44.661Z,11.53
2018-01-15T18:01:50.093Z,8.13
2018-01-15T18:04:55.969Z,7.17
2018-01-15T18:08:02.125Z,6.47
2018-01-15T18:11:07.285Z,8.33
2018-01-15T18:14:12.430Z,5.80
2018-01-15T18:17:18.217Z,5.40
2018-01-15T18:20:24.617Z,5.00
2018-01-15T18:23:31.157Z,5.50
2018-01-15T18:26:36.237Z,5.00
2018-01-15T18:29:41.305Z,4.03
2018-01-15T18:32:46.674Z,4.20
2018-01-15T18:35:51.849Z,4.90
2018-01-15T18:38:57.421Z,4.70
2018-01-15T18:42:02.786Z,4.70
2018-01-15T18:45:08.788Z,5.20
2018-01-15T18:48:14.438Z,5.60
2018-01-15T18:51:20.225Z,5.80
2018-01-15T18:54:25.925Z,5.47
2018-01-15T18:57:31.758Z,4.83
2018-01-15T19:00:37.473Z,5.20
2018-01-15T19:03:42.677Z,5.20
2018-01-15T19:06:48.193Z,5.37
2018-01-15T19:09:53.396Z,5.13
2018-01-15T19:12:59.617Z,5.20
2018-01-15T19:16:05.148Z,4.87
2018-01-15T19:19:09.953Z,4.43
2018-01-15T19:22:16.014Z,5.40
2018-01-15T19:25:21.718Z,5.00
2018-01-15T19:28:28.494Z,4.03
2018-01-15T19:31:33.249Z,4.47
2018-01-15T19:34:39.369Z,4.00
2018-01-15T19:37:54.806Z,3.53
2018-01-15T19:41:00.493Z,4.03
2018-01-15T19:44:12.659Z,4.20
2018-01-15T19:47:24.429Z,4.23
2018-01-15T19:50:37.897Z,4.60
2018-01-15T19:53:49.621Z,3.90
2018-01-15T19:57:00.709Z,4.23
2018-01-15T20:00:12.729Z,3.87
2018-01-15T20:03:23.965Z,4.10
2018-01-15T20:06:35.798Z,3.83
2018-01-15T20:09:47.029Z,3.00
2018-01-15T20:12:52.030Z,3.40
2018-01-15T20:15:56.887Z,3.23
2018-01-15T20:19:02.562Z,3.10
2018-01-15T20:22:07.725Z,3.30
2018-01-15T20:25:13.406Z,2.73
2018-01-15T20:28:19.205Z,2.10
2018-01-15T20:31:24.860Z,2.10
2018-01-15T20:34:30.613Z,1.80
2018-01-15T20:37:35.653Z,1.57
2018-01-15T20:40:41.209Z,1.50
2018-01-15T20:43:47.722Z,1.37
2018-01-15T20:46:53.314Z,1.30
2018-01-15T20:49:58.951Z,1.70
2018-01-15T20:53:04.685Z,1.60
2018-01-15T20:56:09.949Z,1.60
2018-01-15T20:59:15.464Z,1.40
2018-01-15T21:02:21.005Z,1.57
2018-01-15T21:05:28.117Z,1.20
2018-01-15T21:08:33.764Z,1.53
2018-01-15T21:11:40.030Z,1.47
2018-01-15T21:14:47.033Z,1.17
2018-01-15T21:17:52.831Z,1.83
2018-01-15T21:20:58.557Z,1.93
2018-01-15T21:24:04.161Z,1.60
2018-01-15T21:27:09.333Z,1.77
2018-01-15T21:30:14.110Z,1.53
2018-01-15T21:33:18.949Z,1.80
2018-01-15T21:36:24.689Z,2.23
2018-01-15T21:39:31.083Z,1.80
2018-01-15T21:42:36.841Z,1.83
2018-01-15T21:45:42.482Z,1.30
2018-01-15T21:48:48.017Z,1.50
2018-01-15T21:51:53.109Z,1.50
2018-01-15T21:54:59.385Z,1.40
2018-01-15T21:58:04.233Z,1.50
2018-01-15T22:01:10.751Z,1.37
2018-01-15T22:04:15.782Z,1.70
2018-01-15T22:07:20.729Z,1.10
2018-01-15T22:10:25.681Z,1.37
2018-01-15T22:13:30.881Z,1.10
2018-01-15T22:16:37.038Z,1.20
2018-01-15T22:19:42.101Z,1.13
2018-01-15T22:22:47.470Z,1.00
2018-01-15T22:25:52.481Z,0.80
2018-01-15T22:28:57.981Z,1.03
2018-01-15T22:32:03.105Z,1.20
2018-01-15T22:35:07.949Z,1.00
2018-01-15T22:38:13.813Z,1.37
2018-01-15T22:41:18.777Z,1.07
2018-01-15T22:44:24.189Z,1.13
2018-01-15T22:47:29.928Z,1.20
2018-01-15T22:50:34.923Z,1.33
2018-01-15T22:53:39.794Z,1.00
2018-01-15T22:56:45.285Z,1.20
2018-01-15T22:59:50.837Z,1.00
2018-01-15T23:02:56.045Z,1.07
2018-01-15T23:06:01.420Z,0.90
2018-01-15T23:09:07.343Z,1.00
2018-01-15T23:12:12.905Z,1.00
2018-01-15T23:15:18.013Z,1.27
2018-01-15T23:18:23.173Z,0.70
2018-01-15T23:21:28.877Z,0.83
2018-01-15T23:24:33.701Z,1.20
2018-01-15T23:27:39.898Z,0.90
2018-01-15T23:30:45.673Z,0.90
2018-01-15T23:33:50.902Z,1.30
2018-01-15T23:36:56.450Z,1.07
2018-01-15T23:40:01.957Z,0.90
2018-01-15T23:43:08.341Z,0.90
2018-01-15T23:46:14.764Z,0.90
2018-01-15T23:49:19.636Z,0.90
2018-01-15T23:52:24.698Z,1.00
2018-01-15T23:55:30.393Z,1.10
2018-01-15T23:58:35.701Z,0.83
